sensor_id;sensor_type;location;lat;lon;timestamp;P1;durP1;ratioP1;P2;durP2;ratioP2
7519;SDS011;3801;48.876;10.184;2023-06-22T00:02:33;12.13;;;8.60;;
7519;SDS011;3801;48.876;10.184;2023-06-22T00:07:38;13.43;;;9.00;;
7519;SDS011;3801;48.876;10.184;2023-06-22T00:12:41;11.23;;;8.37;;
7519;SDS011;3801;48.876;10.184;2023-06-22T00:17:45;10.53;;;8.03;;
7519;SDS011;3801;48.876;10.184;2023-06-22T00:22:50;10.53;;;8.53;;
7519;SDS011;3801;48.876;10.184;2023-06-22T00:27:53;13.37;;;9.33;;
7519;SDS011;3801;48.876;10.184;2023-06-22T00:32:57;12.77;;;9.13;;
7519;SDS011;3801;48.876;10.184;2023-06-22T00:38:01;11.67;;;8.90;;
7519;SDS011;3801;48.876;10.184;2023-06-22T00:43:06;12.70;;;9.73;;
7519;SDS011;3801;48.876;10.184;2023-06-22T00:48:10;10.13;;;8.63;;
7519;SDS011;3801;48.876;10.184;2023-06-22T00:53:16;11.07;;;8.57;;
7519;SDS011;3801;48.876;10.184;2023-06-22T00:58:21;10.97;;;7.73;;
7519;SDS011;3801;48.876;10.184;2023-06-22T01:03:24;10.83;;;7.67;;
7519;SDS011;3801;48.876;10.184;2023-06-22T01:08:31;11.27;;;8.43;;
7519;SDS011;3801;48.876;10.184;2023-06-22T01:13:37;11.60;;;8.27;;
7519;SDS011;3801;48.876;10.184;2023-06-22T01:18:44;13.67;;;9.83;;
7519;SDS011;3801;48.876;10.184;2023-06-22T01:23:54;13.00;;;9.43;;
7519;SDS011;3801;48.876;10.184;2023-06-22T01:29:02;12.07;;;9.80;;
7519;SDS011;3801;48.876;10.184;2023-06-22T01:34:07;13.93;;;10.20;;
7519;SDS011;3801;48.876;10.184;2023-06-22T01:39:11;13.90;;;10.27;;
7519;SDS011;3801;48.876;10.184;2023-06-22T01:44:17;14.43;;;10.47;;
7519;SDS011;3801;48.876;10.184;2023-06-22T01:49:20;14.30;;;10.37;;
7519;SDS011;3801;48.876;10.184;2023-06-22T01:54:24;12.60;;;10.93;;
7519;SDS011;3801;48.876;10.184;2023-06-22T01:59:31;15.50;;;12.40;;
7519;SDS011;3801;48.876;10.184;2023-06-22T02:04:36;14.47;;;11.17;;
7519;SDS011;3801;48.876;10.184;2023-06-22T02:09:41;15.80;;;10.70;;
7519;SDS011;3801;48.876;10.184;2023-06-22T02:14:47;16.43;;;12.07;;
7519;SDS011;3801;48.876;10.184;2023-06-22T02:19:51;17.77;;;13.53;;
7519;SDS011;3801;48.876;10.184;2023-06-22T02:24:54;16.43;;;13.50;;
7519;SDS011;3801;48.876;10.184;2023-06-22T02:30:01;23.67;;;14.70;;
7519;SDS011;3801;48.876;10.184;2023-06-22T02:35:05;16.03;;;12.67;;
7519;SDS011;3801;48.876;10.184;2023-06-22T02:40:09;19.70;;;13.93;;
7519;SDS011;3801;48.876;10.184;2023-06-22T02:45:14;20.33;;;13.03;;
7519;SDS011;3801;48.876;10.184;2023-06-22T02:50:17;22.20;;;13.57;;
7519;SDS011;3801;48.876;10.184;2023-06-22T02:55:21;16.67;;;12.60;;
7519;SDS011;3801;48.876;10.184;2023-06-22T03:00:31;18.87;;;13.23;;
7519;SDS011;3801;48.876;10.184;2023-06-22T03:05:35;20.73;;;14.43;;
7519;SDS011;3801;48.876;10.184;2023-06-22T03:10:39;17.17;;;14.20;;
7519;SDS011;3801;48.876;10.184;2023-06-22T03:15:43;18.80;;;14.53;;
7519;SDS011;3801;48.876;10.184;2023-06-22T03:20:48;17.07;;;13.07;;
7519;SDS011;3801;48.876;10.184;2023-06-22T03:25:51;16.90;;;13.53;;
7519;SDS011;3801;48.876;10.184;2023-06-22T03:30:58;17.70;;;13.73;;
7519;SDS011;3801;48.876;10.184;2023-06-22T03:36:05;21.23;;;14.40;;
7519;SDS011;3801;48.876;10.184;2023-06-22T03:41:08;18.67;;;14.40;;
7519;SDS011;3801;48.876;10.184;2023-06-22T03:46:13;17.63;;;14.60;;
7519;SDS011;3801;48.876;10.184;2023-06-22T03:51:17;20.87;;;14.87;;
7519;SDS011;3801;48.876;10.184;2023-06-22T03:56:21;19.50;;;14.00;;
7519;SDS011;3801;48.876;10.184;2023-06-22T04:01:25;21.43;;;14.83;;
7519;SDS011;3801;48.876;10.184;2023-06-22T04:06:29;17.47;;;14.43;;
7519;SDS011;3801;48.876;10.184;2023-06-22T04:11:32;17.37;;;14.10;;
7519;SDS011;3801;48.876;10.184;2023-06-22T04:16:37;19.63;;;14.13;;
7519;SDS011;3801;48.876;10.184;2023-06-22T04:21:40;17.43;;;12.43;;
7519;SDS011;3801;48.876;10.184;2023-06-22T04:26:44;17.27;;;12.80;;
7519;SDS011;3801;48.876;10.184;2023-06-22T04:31:50;15.77;;;10.87;;
7519;SDS011;3801;48.876;10.184;2023-06-22T04:36:53;14.90;;;12.07;;
7519;SDS011;3801;48.876;10.184;2023-06-22T04:41:57;12.97;;;10.70;;
7519;SDS011;3801;48.876;10.184;2023-06-22T04:47:04;12.93;;;10.93;;
7519;SDS011;3801;48.876;10.184;2023-06-22T04:52:11;13.33;;;11.00;;
7519;SDS011;3801;48.876;10.184;2023-06-22T04:57:15;15.10;;;11.10;;
7519;SDS011;3801;48.876;10.184;2023-06-22T05:02:19;15.60;;;10.37;;
7519;SDS011;3801;48.876;10.184;2023-06-22T05:07:23;12.40;;;10.63;;
7519;SDS011;3801;48.876;10.184;2023-06-22T05:12:27;17.27;;;11.07;;
7519;SDS011;3801;48.876;10.184;2023-06-22T05:17:32;15.23;;;10.32;;
7519;SDS011;3801;48.876;10.184;2023-06-22T05:22:36;14.83;;;11.47;;
7519;SDS011;3801;48.876;10.184;2023-06-22T05:27:39;14.02;;;9.98;;
7519;SDS011;3801;48.876;10.184;2023-06-22T05:32:44;14.55;;;11.00;;
7519;SDS011;3801;48.876;10.184;2023-06-22T05:37:48;13.55;;;10.45;;
7519;SDS011;3801;48.876;10.184;2023-06-22T05:42:51;12.15;;;9.98;;
7519;SDS011;3801;48.876;10.184;2023-06-22T05:47:56;12.02;;;9.02;;
7519;SDS011;3801;48.876;10.184;2023-06-22T05:52:59;12.23;;;9.63;;
7519;SDS011;3801;48.876;10.184;2023-06-22T05:58:03;13.95;;;9.35;;
7519;SDS011;3801;48.876;10.184;2023-06-22T06:03:08;14.05;;;9.40;;
7519;SDS011;3801;48.876;10.184;2023-06-22T06:08:13;9.65;;;8.48;;
7519;SDS011;3801;48.876;10.184;2023-06-22T06:13:17;10.77;;;7.85;;
7519;SDS011;3801;48.876;10.184;2023-06-22T06:18:22;10.63;;;8.50;;
7519;SDS011;3801;48.876;10.184;2023-06-22T06:23:25;8.77;;;7.65;;
7519;SDS011;3801;48.876;10.184;2023-06-22T06:28:28;9.75;;;7.72;;
7519;SDS011;3801;48.876;10.184;2023-06-22T06:33:33;8.88;;;7.85;;
7519;SDS011;3801;48.876;10.184;2023-06-22T06:38:37;10.00;;;7.05;;
7519;SDS011;3801;48.876;10.184;2023-06-22T06:43:40;9.45;;;7.63;;
7519;SDS011;3801;48.876;10.184;2023-06-22T06:48:46;8.45;;;6.93;;
7519;SDS011;3801;48.876;10.184;2023-06-22T06:53:50;10.70;;;7.00;;
7519;SDS011;3801;48.876;10.184;2023-06-22T06:58:53;8.68;;;6.93;;
7519;SDS011;3801;48.876;10.184;2023-06-22T07:03:58;8.13;;;6.70;;
7519;SDS011;3801;48.876;10.184;2023-06-22T07:09:02;8.40;;;6.25;;
7519;SDS011;3801;48.876;10.184;2023-06-22T07:14:06;7.00;;;5.75;;
7519;SDS011;3801;48.876;10.184;2023-06-22T07:19:11;11.13;;;5.72;;
7519;SDS011;3801;48.876;10.184;2023-06-22T07:24:14;8.73;;;5.97;;
7519;SDS011;3801;48.876;10.184;2023-06-22T07:29:20;5.88;;;4.22;;
7519;SDS011;3801;48.876;10.184;2023-06-22T07:34:25;6.00;;;5.40;;
7519;SDS011;3801;48.876;10.184;2023-06-22T07:39:28;8.10;;;5.10;;
7519;SDS011;3801;48.876;10.184;2023-06-22T07:44:32;8.63;;;5.60;;
7519;SDS011;3801;48.876;10.184;2023-06-22T07:49:37;6.28;;;4.25;;
7519;SDS011;3801;48.876;10.184;2023-06-22T07:54:40;7.15;;;5.43;;
7519;SDS011;3801;48.876;10.184;2023-06-22T07:59:44;8.02;;;5.18;;
7519;SDS011;3801;48.876;10.184;2023-06-22T08:04:49;7.55;;;4.72;;
7519;SDS011;3801;48.876;10.184;2023-06-22T08:09:52;5.90;;;4.50;;
7519;SDS011;3801;48.876;10.184;2023-06-22T08:14:56;7.03;;;4.22;;
7519;SDS011;3801;48.876;10.184;2023-06-22T08:20:01;5.85;;;4.53;;
7519;SDS011;3801;48.876;10.184;2023-06-22T08:25:08;6.43;;;4.45;;
7519;SDS011;3801;48.876;10.184;2023-06-22T08:30:11;7.47;;;4.95;;
7519;SDS011;3801;48.876;10.184;2023-06-22T08:35:16;6.85;;;4.60;;
7519;SDS011;3801;48.876;10.184;2023-06-22T08:40:19;8.90;;;5.18;;
7519;SDS011;3801;48.876;10.184;2023-06-22T08:45:23;11.25;;;5.43;;
7519;SDS011;3801;48.876;10.184;2023-06-22T08:50:30;7.97;;;5.15;;
7519;SDS011;3801;48.876;10.184;2023-06-22T08:55:33;8.88;;;4.78;;
7519;SDS011;3801;48.876;10.184;2023-06-22T09:00:37;8.60;;;5.20;;
7519;SDS011;3801;48.876;10.184;2023-06-22T09:05:42;9.80;;;5.15;;
7519;SDS011;3801;48.876;10.184;2023-06-22T09:10:45;6.20;;;4.65;;
7519;SDS011;3801;48.876;10.184;2023-06-22T09:15:49;8.70;;;5.20;;
7519;SDS011;3801;48.876;10.184;2023-06-22T09:20:53;7.15;;;4.60;;
7519;SDS011;3801;48.876;10.184;2023-06-22T09:25:57;10.45;;;4.93;;
7519;SDS011;3801;48.876;10.184;2023-06-22T09:31:00;9.32;;;5.30;;
7519;SDS011;3801;48.876;10.184;2023-06-22T09:36:05;10.65;;;5.20;;
7519;SDS011;3801;48.876;10.184;2023-06-22T09:41:09;10.10;;;4.85;;
7519;SDS011;3801;48.876;10.184;2023-06-22T09:46:12;7.15;;;4.57;;
7519;SDS011;3801;48.876;10.184;2023-06-22T09:51:17;11.30;;;5.55;;
7519;SDS011;3801;48.876;10.184;2023-06-22T09:56:21;11.82;;;5.60;;
7519;SDS011;3801;48.876;10.184;2023-06-22T10:01:25;9.70;;;5.10;;
7519;SDS011;3801;48.876;10.184;2023-06-22T10:06:30;12.88;;;5.72;;
7519;SDS011;3801;48.876;10.184;2023-06-22T10:11:33;9.93;;;5.32;;
7519;SDS011;3801;48.876;10.184;2023-06-22T10:16:37;12.65;;;5.70;;
7519;SDS011;3801;48.876;10.184;2023-06-22T10:21:41;10.32;;;5.65;;
7519;SDS011;3801;48.876;10.184;2023-06-22T10:26:45;11.10;;;6.55;;
7519;SDS011;3801;48.876;10.184;2023-06-22T10:31:48;13.70;;;5.85;;
7519;SDS011;3801;48.876;10.184;2023-06-22T10:36:53;9.98;;;5.68;;
7519;SDS011;3801;48.876;10.184;2023-06-22T10:41:57;12.77;;;5.70;;
7519;SDS011;3801;48.876;10.184;2023-06-22T10:47:00;13.30;;;5.90;;
7519;SDS011;3801;48.876;10.184;2023-06-22T10:52:05;9.60;;;5.28;;
7519;SDS011;3801;48.876;10.184;2023-06-22T10:57:09;9.02;;;5.68;;
7519;SDS011;3801;48.876;10.184;2023-06-22T11:02:12;12.77;;;6.00;;
7519;SDS011;3801;48.876;10.184;2023-06-22T11:07:17;11.50;;;6.38;;
7519;SDS011;3801;48.876;10.184;2023-06-22T11:12:21;12.90;;;6.00;;
7519;SDS011;3801;48.876;10.184;2023-06-22T11:17:24;15.43;;;6.38;;
7519;SDS011;3801;48.876;10.184;2023-06-22T11:22:29;10.63;;;5.93;;
7519;SDS011;3801;48.876;10.184;2023-06-22T11:27:35;12.20;;;5.85;;
7519;SDS011;3801;48.876;10.184;2023-06-22T11:32:38;11.95;;;7.18;;
7519;SDS011;3801;48.876;10.184;2023-06-22T11:37:44;13.85;;;6.63;;
7519;SDS011;3801;48.876;10.184;2023-06-22T11:42:47;11.32;;;6.25;;
7519;SDS011;3801;48.876;10.184;2023-06-22T11:47:51;13.40;;;6.20;;
7519;SDS011;3801;48.876;10.184;2023-06-22T11:52:55;15.98;;;6.60;;
7519;SDS011;3801;48.876;10.184;2023-06-22T11:57:59;16.40;;;6.10;;
7519;SDS011;3801;48.876;10.184;2023-06-22T12:03:05;10.80;;;5.50;;
7519;SDS011;3801;48.876;10.184;2023-06-22T12:08:10;11.55;;;6.72;;
7519;SDS011;3801;48.876;10.184;2023-06-22T12:13:13;13.20;;;6.38;;
7519;SDS011;3801;48.876;10.184;2023-06-22T12:18:17;12.45;;;6.03;;
7519;SDS011;3801;48.876;10.184;2023-06-22T12:23:23;13.50;;;6.60;;
7519;SDS011;3801;48.876;10.184;2023-06-22T12:28:27;13.77;;;6.07;;
7519;SDS011;3801;48.876;10.184;2023-06-22T12:33:30;14.38;;;6.63;;
7519;SDS011;3801;48.876;10.184;2023-06-22T12:38:35;11.00;;;6.38;;
7519;SDS011;3801;48.876;10.184;2023-06-22T12:43:38;11.40;;;6.72;;
7519;SDS011;3801;48.876;10.184;2023-06-22T12:48:42;18.35;;;7.35;;
7519;SDS011;3801;48.876;10.184;2023-06-22T12:53:47;14.40;;;6.15;;
7519;SDS011;3801;48.876;10.184;2023-06-22T12:58:51;13.85;;;6.95;;
7519;SDS011;3801;48.876;10.184;2023-06-22T13:03:55;12.40;;;6.35;;
7519;SDS011;3801;48.876;10.184;2023-06-22T13:09:00;13.43;;;6.88;;
7519;SDS011;3801;48.876;10.184;2023-06-22T13:14:06;12.48;;;6.95;;
7519;SDS011;3801;48.876;10.184;2023-06-22T13:19:10;13.95;;;7.07;;
7519;SDS011;3801;48.876;10.184;2023-06-22T13:24:14;12.88;;;7.13;;
7519;SDS011;3801;48.876;10.184;2023-06-22T13:29:18;14.30;;;6.30;;
7519;SDS011;3801;48.876;10.184;2023-06-22T13:34:21;14.27;;;6.63;;
7519;SDS011;3801;48.876;10.184;2023-06-22T13:39:26;16.83;;;7.47;;
7519;SDS011;3801;48.876;10.184;2023-06-22T13:44:29;12.85;;;6.88;;
7519;SDS011;3801;48.876;10.184;2023-06-22T13:49:33;15.50;;;7.13;;
7519;SDS011;3801;48.876;10.184;2023-06-22T13:54:37;15.50;;;7.22;;
7519;SDS011;3801;48.876;10.184;2023-06-22T13:59:41;15.52;;;7.55;;
7519;SDS011;3801;48.876;10.184;2023-06-22T14:04:44;15.32;;;6.70;;
7519;SDS011;3801;48.876;10.184;2023-06-22T14:09:49;12.73;;;6.80;;
7519;SDS011;3801;48.876;10.184;2023-06-22T14:14:53;12.45;;;6.60;;
7519;SDS011;3801;48.876;10.184;2023-06-22T14:19:56;14.30;;;7.30;;
7519;SDS011;3801;48.876;10.184;2023-06-22T14:25:01;15.88;;;7.53;;
7519;SDS011;3801;48.876;10.184;2023-06-22T14:30:05;13.65;;;7.13;;
7519;SDS011;3801;48.876;10.184;2023-06-22T14:35:11;16.08;;;7.65;;
7519;SDS011;3801;48.876;10.184;2023-06-22T14:40:16;12.10;;;6.65;;
7519;SDS011;3801;48.876;10.184;2023-06-22T14:45:19;13.60;;;6.38;;
7519;SDS011;3801;48.876;10.184;2023-06-22T14:50:23;13.88;;;7.35;;
7519;SDS011;3801;48.876;10.184;2023-06-22T14:55:27;11.13;;;6.50;;
7519;SDS011;3801;48.876;10.184;2023-06-22T15:00:31;17.42;;;7.00;;
7519;SDS011;3801;48.876;10.184;2023-06-22T15:05:34;10.32;;;6.20;;
7519;SDS011;3801;48.876;10.184;2023-06-22T15:10:39;14.07;;;6.78;;
7519;SDS011;3801;48.876;10.184;2023-06-22T15:15:42;15.25;;;6.80;;
7519;SDS011;3801;48.876;10.184;2023-06-22T15:20:46;10.90;;;6.30;;
7519;SDS011;3801;48.876;10.184;2023-06-22T15:25:51;16.85;;;6.88;;
7519;SDS011;3801;48.876;10.184;2023-06-22T15:30:55;14.52;;;6.13;;
7519;SDS011;3801;48.876;10.184;2023-06-22T15:35:58;14.98;;;5.82;;
7519;SDS011;3801;48.876;10.184;2023-06-22T15:41:07;14.93;;;5.97;;
7519;SDS011;3801;48.876;10.184;2023-06-22T15:46:10;15.27;;;5.70;;
7519;SDS011;3801;48.876;10.184;2023-06-22T15:51:14;13.90;;;5.75;;
7519;SDS011;3801;48.876;10.184;2023-06-22T15:56:19;14.90;;;5.93;;
7519;SDS011;3801;48.876;10.184;2023-06-22T16:01:22;12.40;;;5.15;;
7519;SDS011;3801;48.876;10.184;2023-06-22T16:06:26;11.70;;;5.18;;
7519;SDS011;3801;48.876;10.184;2023-06-22T16:11:31;10.00;;;5.40;;
7519;SDS011;3801;48.876;10.184;2023-06-22T16:16:34;12.85;;;5.20;;
7519;SDS011;3801;48.876;10.184;2023-06-22T16:21:38;10.00;;;4.95;;
7519;SDS011;3801;48.876;10.184;2023-06-22T16:26:42;13.50;;;5.55;;
7519;SDS011;3801;48.876;10.184;2023-06-22T16:31:47;14.27;;;5.53;;
7519;SDS011;3801;48.876;10.184;2023-06-22T16:36:50;13.23;;;5.25;;
7519;SDS011;3801;48.876;10.184;2023-06-22T16:41:55;12.65;;;5.78;;
7519;SDS011;3801;48.876;10.184;2023-06-22T16:46:59;14.02;;;5.60;;
7519;SDS011;3801;48.876;10.184;2023-06-22T16:52:04;15.18;;;5.93;;
7519;SDS011;3801;48.876;10.184;2023-06-22T16:57:09;15.13;;;5.45;;
7519;SDS011;3801;48.876;10.184;2023-06-22T17:02:15;11.77;;;5.35;;
7519;SDS011;3801;48.876;10.184;2023-06-22T17:07:20;14.02;;;5.47;;
7519;SDS011;3801;48.876;10.184;2023-06-22T17:12:25;10.50;;;5.15;;
7519;SDS011;3801;48.876;10.184;2023-06-22T17:17:28;10.90;;;5.50;;
7519;SDS011;3801;48.876;10.184;2023-06-22T17:22:32;11.35;;;5.47;;
7519;SDS011;3801;48.876;10.184;2023-06-22T17:27:39;14.68;;;6.32;;
7519;SDS011;3801;48.876;10.184;2023-06-22T17:32:45;13.45;;;6.47;;
7519;SDS011;3801;48.876;10.184;2023-06-22T17:37:50;15.55;;;6.07;;
7519;SDS011;3801;48.876;10.184;2023-06-22T17:43:01;10.07;;;5.43;;
7519;SDS011;3801;48.876;10.184;2023-06-22T17:48:05;11.77;;;5.75;;
7519;SDS011;3801;48.876;10.184;2023-06-22T17:53:11;13.10;;;5.95;;
7519;SDS011;3801;48.876;10.184;2023-06-22T17:58:16;15.93;;;6.63;;
7519;SDS011;3801;48.876;10.184;2023-06-22T18:03:22;10.15;;;5.28;;
7519;SDS011;3801;48.876;10.184;2023-06-22T18:08:26;13.32;;;5.72;;
7519;SDS011;3801;48.876;10.184;2023-06-22T18:13:32;15.18;;;5.95;;
7519;SDS011;3801;48.876;10.184;2023-06-22T18:18:36;13.48;;;5.57;;
7519;SDS011;3801;48.876;10.184;2023-06-22T18:23:41;10.98;;;5.40;;
7519;SDS011;3801;48.876;10.184;2023-06-22T18:28:47;11.52;;;5.25;;
7519;SDS011;3801;48.876;10.184;2023-06-22T18:33:51;12.60;;;5.45;;
7519;SDS011;3801;48.876;10.184;2023-06-22T18:38:55;10.57;;;4.15;;
7519;SDS011;3801;48.876;10.184;2023-06-22T18:44:02;12.13;;;4.43;;
7519;SDS011;3801;48.876;10.184;2023-06-22T18:49:13;10.18;;;4.45;;
7519;SDS011;3801;48.876;10.184;2023-06-22T18:54:22;10.55;;;4.63;;
7519;SDS011;3801;48.876;10.184;2023-06-22T18:59:43;15.50;;;6.20;;
7519;SDS011;3801;48.876;10.184;2023-06-22T19:04:47;12.32;;;6.13;;
7519;SDS011;3801;48.876;10.184;2023-06-22T19:15:10;11.75;;;5.75;;
7519;SDS011;3801;48.876;10.184;2023-06-22T19:20:17;11.23;;;5.28;;
7519;SDS011;3801;48.876;10.184;2023-06-22T19:25:22;9.83;;;4.40;;
7519;SDS011;3801;48.876;10.184;2023-06-22T19:30:27;11.77;;;4.50;;
7519;SDS011;3801;48.876;10.184;2023-06-22T19:35:31;8.27;;;3.63;;
7519;SDS011;3801;48.876;10.184;2023-06-22T19:40:38;10.25;;;4.15;;
7519;SDS011;3801;48.876;10.184;2023-06-22T19:45:43;8.90;;;3.90;;
7519;SDS011;3801;48.876;10.184;2023-06-22T19:50:46;6.90;;;3.70;;
7519;SDS011;3801;48.876;10.184;2023-06-22T19:55:50;9.50;;;4.60;;
7519;SDS011;3801;48.876;10.184;2023-06-22T20:00:55;7.07;;;4.33;;
7519;SDS011;3801;48.876;10.184;2023-06-22T20:06:08;8.30;;;3.97;;
7519;SDS011;3801;48.876;10.184;2023-06-22T20:11:12;8.23;;;3.80;;
7519;SDS011;3801;48.876;10.184;2023-06-22T20:16:17;7.83;;;3.87;;
7519;SDS011;3801;48.876;10.184;2023-06-22T20:21:21;6.40;;;3.53;;
7519;SDS011;3801;48.876;10.184;2023-06-22T20:26:36;10.60;;;4.03;;
7519;SDS011;3801;48.876;10.184;2023-06-22T20:31:41;8.97;;;3.53;;
7519;SDS011;3801;48.876;10.184;2023-06-22T20:36:44;11.60;;;4.60;;
7519;SDS011;3801;48.876;10.184;2023-06-22T20:41:48;8.47;;;3.83;;
7519;SDS011;3801;48.876;10.184;2023-06-22T20:46:52;8.67;;;4.13;;
7519;SDS011;3801;48.876;10.184;2023-06-22T20:51:57;11.67;;;4.57;;
7519;SDS011;3801;48.876;10.184;2023-06-22T20:57:05;12.07;;;4.10;;
7519;SDS011;3801;48.876;10.184;2023-06-22T21:02:10;10.43;;;4.20;;
7519;SDS011;3801;48.876;10.184;2023-06-22T21:07:14;7.87;;;3.63;;
7519;SDS011;3801;48.876;10.184;2023-06-22T21:12:18;9.87;;;4.13;;
7519;SDS011;3801;48.876;10.184;2023-06-22T21:17:22;10.53;;;3.90;;
7519;SDS011;3801;48.876;10.184;2023-06-22T21:22:29;7.57;;;3.40;;
7519;SDS011;3801;48.876;10.184;2023-06-22T21:27:33;8.13;;;3.27;;
7519;SDS011;3801;48.876;10.184;2023-06-22T21:32:38;8.97;;;3.90;;
7519;SDS011;3801;48.876;10.184;2023-06-22T21:37:42;7.10;;;3.50;;
7519;SDS011;3801;48.876;10.184;2023-06-22T21:42:48;7.60;;;3.60;;
7519;SDS011;3801;48.876;10.184;2023-06-22T21:47:53;7.57;;;3.70;;
7519;SDS011;3801;48.876;10.184;2023-06-22T21:52:57;8.83;;;3.53;;
7519;SDS011;3801;48.876;10.184;2023-06-22T21:58:03;7.83;;;4.00;;
7519;SDS011;3801;48.876;10.184;2023-06-22T22:03:08;5.53;;;3.60;;
7519;SDS011;3801;48.876;10.184;2023-06-22T22:08:11;6.33;;;4.00;;
7519;SDS011;3801;48.876;10.184;2023-06-22T22:13:15;5.87;;;3.83;;
7519;SDS011;3801;48.876;10.184;2023-06-22T22:18:20;6.93;;;3.77;;
7519;SDS011;3801;48.876;10.184;2023-06-22T22:23:24;6.67;;;3.60;;
7519;SDS011;3801;48.876;10.184;2023-06-22T22:28:27;5.87;;;3.90;;
7519;SDS011;3801;48.876;10.184;2023-06-22T22:33:32;6.77;;;4.43;;
7519;SDS011;3801;48.876;10.184;2023-06-22T22:38:37;6.47;;;4.17;;
7519;SDS011;3801;48.876;10.184;2023-06-22T22:43:44;5.80;;;4.37;;
7519;SDS011;3801;48.876;10.184;2023-06-22T22:48:49;7.87;;;3.93;;
7519;SDS011;3801;48.876;10.184;2023-06-22T22:53:52;6.30;;;3.90;;
7519;SDS011;3801;48.876;10.184;2023-06-22T22:58:56;8.37;;;4.30;;
7519;SDS011;3801;48.876;10.184;2023-06-22T23:04:00;6.33;;;4.00;;
7519;SDS011;3801;48.876;10.184;2023-06-22T23:09:04;6.13;;;3.80;;
7519;SDS011;3801;48.876;10.184;2023-06-22T23:14:07;5.90;;;3.50;;
7519;SDS011;3801;48.876;10.184;2023-06-22T23:19:12;8.07;;;3.77;;
7519;SDS011;3801;48.876;10.184;2023-06-22T23:24:16;4.43;;;3.37;;
7519;SDS011;3801;48.876;10.184;2023-06-22T23:29:21;6.87;;;3.40;;
7519;SDS011;3801;48.876;10.184;2023-06-22T23:34:25;6.17;;;3.40;;
7519;SDS011;3801;48.876;10.184;2023-06-22T23:39:30;3.90;;;2.80;;
7519;SDS011;3801;48.876;10.184;2023-06-22T23:44:33;3.40;;;2.30;;
7519;SDS011;3801;48.876;10.184;2023-06-22T23:49:38;4.03;;;2.70;;
7519;SDS011;3801;48.876;10.184;2023-06-22T23:54:42;3.53;;;2.57;;
7519;SDS011;3801;48.876;10.184;2023-06-22T23:59:45;3.20;;;2.17;;
